createdAt,value
2023-01-17T00:02:15.483Z,0.60
2023-01-17T00:05:00.774Z,2.20
2023-01-17T00:07:47.207Z,0.30
2023-01-17T00:10:17.417Z,0.80
2023-01-17T00:12:56.239Z,0.30
2023-01-17T00:15:26.405Z,0.40
2023-01-17T00:17:54.133Z,0.47
2023-01-17T00:20:42.936Z,0.20
2023-01-17T00:23:41.585Z,0.30
2023-01-17T00:26:15.012Z,0.20
2023-01-17T00:28:43.130Z,0.40
2023-01-17T00:31:11.911Z,0.35
2023-01-17T00:33:38.775Z,0.28
2023-01-17T00:36:06.910Z,0.65
2023-01-17T00:38:36.355Z,0.55
2023-01-17T00:41:08.617Z,0.63
2023-01-17T00:43:55.254Z,0.20
2023-01-17T00:46:40.901Z,0.20
2023-01-17T00:49:27.033Z,0.47
2023-01-17T00:52:12.739Z,0.35
2023-01-17T00:54:58.104Z,0.20
2023-01-17T00:57:43.472Z,0.52
2023-01-17T01:00:30.059Z,0.40
2023-01-17T01:03:15.596Z,0.20
2023-01-17T01:06:00.957Z,0.80
2023-01-17T01:08:48.154Z,0.50
2023-01-17T01:11:36.705Z,1.95
2023-01-17T01:14:23.430Z,0.40
2023-01-17T01:17:09.155Z,1.00
2023-01-17T01:19:54.536Z,0.70
2023-01-17T01:22:39.865Z,0.35
2023-01-17T01:25:25.462Z,0.22
2023-01-17T01:28:11.182Z,0.90
2023-01-17T01:30:56.422Z,0.20
2023-01-17T01:33:23.201Z,0.40
2023-01-17T01:35:55.104Z,0.13
2023-01-17T01:38:24.314Z,0.30
2023-01-17T01:40:56.329Z,0.40
2023-01-17T01:43:47.935Z,0.20
2023-01-17T01:46:23.133Z,0.10
2023-01-17T01:49:19.251Z,0.10
2023-01-17T01:51:52.793Z,0.10
2023-01-17T01:54:31.547Z,0.80
2023-01-17T01:57:01.160Z,0.10
2023-01-17T01:59:28.209Z,0.40
2023-01-17T02:01:57.297Z,0.20
2023-01-17T02:04:27.776Z,0.10
2023-01-17T02:07:06.960Z,0.20
2023-01-17T02:09:34.489Z,0.20
2023-01-17T02:12:01.766Z,0.10
2023-01-17T02:14:28.605Z,1.55
2023-01-17T02:17:15.663Z,0.20
2023-01-17T02:20:05.178Z,0.40
2023-01-17T02:23:02.760Z,0.30
2023-01-17T02:25:53.710Z,0.30
2023-01-17T02:28:57.787Z,0.13
2023-01-17T02:31:42.398Z,0.20
2023-01-17T02:34:25.119Z,0.10
2023-01-17T02:37:04.378Z,0.73
2023-01-17T02:39:51.477Z,0.70
2023-01-17T02:42:26.666Z,0.10
2023-01-17T02:44:53.666Z,0.35
2023-01-17T02:47:29.123Z,0.20
2023-01-17T02:50:12.285Z,1.40
2023-01-17T02:52:44.781Z,0.28
2023-01-17T02:55:33.391Z,0.20
2023-01-17T02:58:34.737Z,0.10
2023-01-17T03:01:23.057Z,0.10
2023-01-17T03:04:10.350Z,1.00
2023-01-17T03:06:44.083Z,0.10
2023-01-17T03:09:12.570Z,1.02
2023-01-17T03:11:39.441Z,0.10
2023-01-17T03:14:09.309Z,0.10
2023-01-17T03:16:36.672Z,0.77
2023-01-17T03:19:03.641Z,0.00
2023-01-17T03:21:30.484Z,0.85
2023-01-17T03:23:57.368Z,0.70
2023-01-17T03:26:24.189Z,0.00
2023-01-17T03:28:51.088Z,0.10
2023-01-17T03:31:20.150Z,0.10
2023-01-17T03:33:47.072Z,0.30
2023-01-17T03:36:14.068Z,0.35
2023-01-17T03:38:41.056Z,0.47
2023-01-17T03:41:08.162Z,0.10
2023-01-17T03:43:35.004Z,0.08
2023-01-17T03:46:07.424Z,0.10
2023-01-17T03:48:34.301Z,0.40
2023-01-17T03:51:01.203Z,1.00
2023-01-17T03:53:28.040Z,0.77
2023-01-17T03:55:54.875Z,0.10
2023-01-17T03:58:21.728Z,0.35
2023-01-17T04:00:48.608Z,0.10
2023-01-17T04:03:15.452Z,0.20
2023-01-17T04:05:42.471Z,1.77
2023-01-17T04:08:09.266Z,0.17
2023-01-17T04:10:36.170Z,0.40
2023-01-17T04:13:02.996Z,0.17
2023-01-17T04:15:29.977Z,0.10
2023-01-17T04:17:57.293Z,1.38
2023-01-17T04:20:33.630Z,0.10
2023-01-17T04:23:00.523Z,0.10
2023-01-17T04:25:30.188Z,0.28
2023-01-17T04:27:58.209Z,0.80
2023-01-17T04:30:25.503Z,0.20
2023-01-17T04:32:52.430Z,0.10
2023-01-17T04:35:19.287Z,0.10
2023-01-17T04:37:46.201Z,0.17
2023-01-17T04:40:13.379Z,0.10
2023-01-17T04:42:40.514Z,0.10
2023-01-17T04:45:08.307Z,0.28
2023-01-17T04:47:35.097Z,0.10
2023-01-17T04:50:01.963Z,0.10
2023-01-17T04:52:28.885Z,0.20
2023-01-17T04:54:55.681Z,0.20
2023-01-17T04:57:22.492Z,0.28
2023-01-17T04:59:49.523Z,0.38
2023-01-17T05:02:16.400Z,0.10
2023-01-17T05:04:43.258Z,0.10
2023-01-17T05:07:10.074Z,0.35
2023-01-17T05:09:37.014Z,0.10
2023-01-17T05:12:03.931Z,0.10
2023-01-17T05:14:30.904Z,0.10
2023-01-17T05:16:58.394Z,0.10
2023-01-17T05:19:26.397Z,0.28
2023-01-17T05:21:53.246Z,0.50
2023-01-17T05:24:20.321Z,0.10
2023-01-17T05:26:54.881Z,0.47
2023-01-17T05:29:22.309Z,0.03
2023-01-17T05:31:49.128Z,0.63
2023-01-17T05:34:16.084Z,0.13
2023-01-17T05:36:42.913Z,0.85
2023-01-17T05:39:09.796Z,1.50
2023-01-17T05:41:36.637Z,2.45
2023-01-17T05:44:03.475Z,0.38
2023-01-17T05:46:30.588Z,0.10
2023-01-17T05:48:57.593Z,0.10
2023-01-17T05:51:24.474Z,0.25
2023-01-17T05:53:51.291Z,0.13
2023-01-17T05:56:18.109Z,0.10
2023-01-17T05:58:45.023Z,1.75
2023-01-17T06:01:12.035Z,0.10
2023-01-17T06:03:38.849Z,0.10
2023-01-17T06:06:05.853Z,0.10
2023-01-17T06:08:32.733Z,0.10
2023-01-17T06:10:59.804Z,1.40
2023-01-17T06:13:26.617Z,1.45
2023-01-17T06:15:53.453Z,1.45
2023-01-17T06:18:20.307Z,2.38
2023-01-17T06:20:53.285Z,2.50
2023-01-17T06:23:20.337Z,2.75
2023-01-17T06:25:47.728Z,2.78
2023-01-17T06:28:16.998Z,5.07
2023-01-17T06:30:44.326Z,15.00
2023-01-17T06:33:12.048Z,11.57
2023-01-17T06:35:41.139Z,19.65
2023-01-17T06:38:07.985Z,16.65
2023-01-17T06:40:34.871Z,8.52
2023-01-17T06:43:03.012Z,8.50
2023-01-17T06:45:31.951Z,32.55
2023-01-17T06:48:00.948Z,32.05
2023-01-17T06:50:27.977Z,8.93
2023-01-17T06:53:00.245Z,12.30
2023-01-17T06:55:29.102Z,12.00
2023-01-17T06:57:57.476Z,20.23
2023-01-17T07:00:24.649Z,6.75
2023-01-17T07:02:52.724Z,18.10
2023-01-17T07:05:21.484Z,15.27
2023-01-17T07:07:48.676Z,13.10
2023-01-17T07:10:16.211Z,5.93
2023-01-17T07:12:43.281Z,9.25
2023-01-17T07:15:10.963Z,4.65
2023-01-17T07:17:38.382Z,1.58
2023-01-17T07:20:05.901Z,3.95
2023-01-17T07:22:32.831Z,4.97
2023-01-17T07:24:59.993Z,1.48
2023-01-17T07:27:30.538Z,5.93
2023-01-17T07:29:58.184Z,7.32
2023-01-17T07:32:26.879Z,6.85
2023-01-17T07:34:54.843Z,4.88
2023-01-17T07:37:22.430Z,2.17
2023-01-17T07:39:49.811Z,22.05
2023-01-17T07:42:16.884Z,12.88
2023-01-17T07:44:45.287Z,11.43
2023-01-17T07:47:12.418Z,6.18
2023-01-17T07:49:39.807Z,3.28
2023-01-17T07:52:08.196Z,4.40
2023-01-17T07:54:35.224Z,4.32
2023-01-17T07:57:02.372Z,3.63
2023-01-17T07:59:29.412Z,4.95
2023-01-17T08:01:56.350Z,3.65
2023-01-17T08:04:26.580Z,3.95
2023-01-17T08:06:55.209Z,4.70
2023-01-17T08:09:22.371Z,1.38
2023-01-17T08:11:49.360Z,1.90
2023-01-17T08:14:16.613Z,2.72
2023-01-17T08:16:43.633Z,2.42
2023-01-17T08:19:11.086Z,4.18
2023-01-17T08:21:38.009Z,4.22
2023-01-17T08:24:05.166Z,1.33
2023-01-17T08:26:32.273Z,3.60
2023-01-17T08:29:00.757Z,0.43
2023-01-17T08:31:29.934Z,2.10
2023-01-17T08:33:57.667Z,3.75
2023-01-17T08:36:29.101Z,0.52
2023-01-17T08:38:55.990Z,1.27
2023-01-17T08:41:24.300Z,1.40
2023-01-17T08:43:52.203Z,1.08
2023-01-17T08:46:19.936Z,0.82
2023-01-17T08:48:47.043Z,1.40
2023-01-17T08:51:14.130Z,2.38
2023-01-17T08:53:41.060Z,2.47
2023-01-17T08:56:08.448Z,8.07
2023-01-17T08:58:36.216Z,0.40
2023-01-17T09:01:05.275Z,2.47
2023-01-17T09:03:33.473Z,0.30
2023-01-17T09:06:08.552Z,1.75
2023-01-17T09:08:36.131Z,1.90
2023-01-17T09:11:05.253Z,14.32
2023-01-17T09:13:32.356Z,28.15
2023-01-17T09:16:00.442Z,24.73
2023-01-17T09:18:28.722Z,12.45
2023-01-17T09:20:59.432Z,13.95
2023-01-17T09:23:28.371Z,16.65
2023-01-17T09:26:00.222Z,75.82
2023-01-17T09:28:28.212Z,42.63
2023-01-17T09:30:55.385Z,38.42
2023-01-17T09:33:24.754Z,25.90
2023-01-17T09:35:51.859Z,21.95
2023-01-17T09:38:19.166Z,16.90
2023-01-17T09:40:48.566Z,20.75
2023-01-17T09:43:35.841Z,66.78
2023-01-17T09:46:03.492Z,54.67
2023-01-17T09:48:39.197Z,57.72
2023-01-17T09:51:24.901Z,48.20
2023-01-17T09:53:53.944Z,17.90
2023-01-17T09:56:43.095Z,20.15
2023-01-17T09:59:35.340Z,19.05
2023-01-17T10:02:50.580Z,20.60
2023-01-17T10:05:55.427Z,19.70
2023-01-17T10:08:58.857Z,9.75
2023-01-17T10:12:21.218Z,15.07
2023-01-17T10:15:08.857Z,26.92
2023-01-17T10:17:41.944Z,16.02
2023-01-17T10:20:36.229Z,11.05
2023-01-17T10:23:32.816Z,29.00
2023-01-17T10:26:17.755Z,7.25
2023-01-17T10:28:51.867Z,6.03
2023-01-17T10:31:23.163Z,35.85
2023-01-17T10:33:58.084Z,11.02
2023-01-17T10:36:29.451Z,9.60
2023-01-17T10:39:01.012Z,10.25
2023-01-17T10:41:36.346Z,13.82
2023-01-17T10:44:21.198Z,15.60
2023-01-17T10:46:57.763Z,9.88
2023-01-17T10:49:28.627Z,6.53
2023-01-17T10:52:12.755Z,5.03
2023-01-17T10:55:17.256Z,5.45
2023-01-17T10:57:49.331Z,23.27
2023-01-17T11:00:18.271Z,8.82
2023-01-17T11:02:49.842Z,3.45
2023-01-17T11:05:31.341Z,9.07
2023-01-17T11:07:59.628Z,5.05
2023-01-17T11:10:47.565Z,3.05
2023-01-17T11:13:31.556Z,5.25
2023-01-17T11:16:06.634Z,4.22
2023-01-17T11:18:36.878Z,0.98
2023-01-17T11:21:24.776Z,3.17
2023-01-17T11:23:57.030Z,1.17
2023-01-17T11:26:33.143Z,2.05
2023-01-17T11:29:28.959Z,5.00
2023-01-17T11:31:56.629Z,1.23
2023-01-17T11:34:26.411Z,1.60
2023-01-17T11:37:10.717Z,2.15
2023-01-17T11:39:37.752Z,0.95
2023-01-17T11:42:06.788Z,0.40
2023-01-17T11:44:36.378Z,0.70
2023-01-17T11:47:13.070Z,1.85
2023-01-17T11:49:42.521Z,0.82
2023-01-17T11:52:24.574Z,1.20
2023-01-17T11:54:54.749Z,1.08
2023-01-17T11:57:27.009Z,1.17
2023-01-17T12:00:41.933Z,2.17
2023-01-17T12:03:53.793Z,0.50
2023-01-17T12:06:20.776Z,0.50
2023-01-17T12:09:09.045Z,0.40
2023-01-17T12:12:33.838Z,0.30
2023-01-17T12:15:00.782Z,0.20
2023-01-17T12:18:06.023Z,0.68
2023-01-17T12:20:51.784Z,2.17
2023-01-17T12:23:29.115Z,4.72
2023-01-17T12:26:24.180Z,6.18
2023-01-17T12:29:06.781Z,7.35
2023-01-17T12:31:46.665Z,11.70
2023-01-17T12:34:24.075Z,16.75
2023-01-17T12:37:07.552Z,9.07
2023-01-17T12:39:40.748Z,26.85
2023-01-17T12:42:26.727Z,21.52
2023-01-17T12:45:05.932Z,22.10
2023-01-17T12:47:38.296Z,7.97
2023-01-17T12:50:24.647Z,9.63
2023-01-17T12:53:32.471Z,5.47
2023-01-17T12:56:24.545Z,22.38
2023-01-17T12:59:17.952Z,13.82
2023-01-17T13:01:58.086Z,8.57
2023-01-17T13:04:33.532Z,4.88
2023-01-17T13:07:00.913Z,14.82
2023-01-17T13:09:34.110Z,5.47
2023-01-17T13:12:07.140Z,7.93
2023-01-17T13:14:34.557Z,4.22
2023-01-17T13:17:13.109Z,3.00
2023-01-17T13:20:01.541Z,3.13
2023-01-17T13:22:30.728Z,8.02
2023-01-17T13:25:34.916Z,18.45
2023-01-17T13:28:36.019Z,8.40
2023-01-17T13:31:20.470Z,4.68
2023-01-17T13:34:05.946Z,2.28
2023-01-17T13:36:44.974Z,5.45
2023-01-17T13:39:30.324Z,3.55
2023-01-17T13:42:30.474Z,5.43
2023-01-17T13:44:58.430Z,3.40
2023-01-17T13:47:28.212Z,6.53
2023-01-17T13:49:56.890Z,0.52
2023-01-17T13:52:26.940Z,20.58
2023-01-17T13:54:55.500Z,12.60
2023-01-17T13:57:40.335Z,6.43
2023-01-17T14:00:16.721Z,3.03
2023-01-17T14:02:46.386Z,7.07
2023-01-17T14:05:17.856Z,3.42
2023-01-17T14:08:06.219Z,31.67
2023-01-17T14:10:41.867Z,11.82
2023-01-17T14:13:36.511Z,6.75
2023-01-17T14:16:08.696Z,3.20
2023-01-17T14:18:43.039Z,3.97
2023-01-17T14:21:35.882Z,4.03
2023-01-17T14:24:15.503Z,6.53
2023-01-17T14:27:13.962Z,6.50
2023-01-17T14:29:51.564Z,4.60
2023-01-17T14:32:25.088Z,6.28
2023-01-17T14:34:53.674Z,8.07
2023-01-17T14:37:43.791Z,9.98
2023-01-17T14:40:24.654Z,5.60
2023-01-17T14:43:02.383Z,19.52
2023-01-17T14:45:32.144Z,8.48
2023-01-17T14:48:01.903Z,7.25
2023-01-17T14:50:37.351Z,4.57
2023-01-17T14:53:14.612Z,7.25
2023-01-17T14:55:47.928Z,15.40
2023-01-17T14:58:27.595Z,7.43
2023-01-17T15:01:20.147Z,32.95
2023-01-17T15:03:56.889Z,28.40
2023-01-17T15:06:28.634Z,21.23
2023-01-17T15:08:56.491Z,24.80
2023-01-17T15:11:28.236Z,19.80
2023-01-17T15:13:59.489Z,20.60
2023-01-17T15:16:34.781Z,4.72
2023-01-17T15:19:03.903Z,4.30
2023-01-17T15:21:37.409Z,4.25
2023-01-17T15:24:09.096Z,17.25
2023-01-17T15:26:43.006Z,8.55
2023-01-17T15:29:19.727Z,7.40
2023-01-17T15:31:54.646Z,8.68
2023-01-17T15:34:37.841Z,6.90
2023-01-17T15:37:22.148Z,7.78
2023-01-17T15:39:53.913Z,9.43
2023-01-17T15:42:31.980Z,1.90
2023-01-17T15:45:06.728Z,2.42
2023-01-17T15:47:40.609Z,2.45
2023-01-17T15:50:25.665Z,2.65
2023-01-17T15:53:06.521Z,1.77
2023-01-17T15:55:40.473Z,14.10
2023-01-17T15:58:29.718Z,16.42
2023-01-17T16:00:58.249Z,17.95
2023-01-17T16:03:31.218Z,5.63
2023-01-17T16:06:01.379Z,6.35
2023-01-17T16:08:30.795Z,9.45
2023-01-17T16:11:02.676Z,12.32
2023-01-17T16:13:32.532Z,5.72
2023-01-17T16:16:13.237Z,4.93
2023-01-17T16:18:41.287Z,4.78
2023-01-17T16:21:21.290Z,3.80
2023-01-17T16:23:48.777Z,4.93
2023-01-17T16:26:16.474Z,3.92
2023-01-17T16:28:44.690Z,16.33
2023-01-17T16:31:12.321Z,10.20
2023-01-17T16:33:40.055Z,5.70
2023-01-17T16:36:12.072Z,10.23
2023-01-17T16:38:39.472Z,8.15
2023-01-17T16:41:06.647Z,10.93
2023-01-17T16:43:34.752Z,12.95
2023-01-17T16:46:02.053Z,10.88
2023-01-17T16:48:29.769Z,11.00
2023-01-17T16:50:56.938Z,5.60
2023-01-17T16:53:27.570Z,9.30
2023-01-17T16:56:00.219Z,7.25
2023-01-17T16:58:29.418Z,8.15
2023-01-17T17:00:56.984Z,11.50
2023-01-17T17:03:24.580Z,8.07
2023-01-17T17:05:58.081Z,16.00
2023-01-17T17:08:25.894Z,21.92
2023-01-17T17:10:53.097Z,27.55
2023-01-17T17:13:20.621Z,18.05
2023-01-17T17:15:47.807Z,11.27
2023-01-17T17:18:17.720Z,24.90
2023-01-17T17:20:45.676Z,25.35
2023-01-17T17:23:12.635Z,17.10
2023-01-17T17:25:39.857Z,24.23
2023-01-17T17:28:07.214Z,38.10
2023-01-17T17:30:35.270Z,50.25
2023-01-17T17:33:04.835Z,59.00
2023-01-17T17:35:35.034Z,52.60
2023-01-17T17:38:02.005Z,30.65
2023-01-17T17:40:28.973Z,33.90
2023-01-17T17:42:56.024Z,32.65
2023-01-17T17:45:23.176Z,35.47
2023-01-17T17:47:50.064Z,184.93
2023-01-17T17:50:16.959Z,66.75
2023-01-17T17:52:44.456Z,59.88
2023-01-17T17:55:11.653Z,101.60
2023-01-17T17:57:38.732Z,47.25
2023-01-17T18:00:06.362Z,38.17
2023-01-17T18:02:33.284Z,32.45
2023-01-17T18:05:00.329Z,34.47
2023-01-17T18:07:27.268Z,30.83
2023-01-17T18:09:54.311Z,27.10
2023-01-17T18:12:21.205Z,38.72
2023-01-17T18:14:48.113Z,24.30
2023-01-17T18:17:16.149Z,36.22
2023-01-17T18:19:46.369Z,27.23
2023-01-17T18:22:13.569Z,32.72
2023-01-17T18:24:40.685Z,33.15
2023-01-17T18:27:10.646Z,13.63
2023-01-17T18:29:37.724Z,17.83
2023-01-17T18:32:04.997Z,26.10
2023-01-17T18:34:34.102Z,18.23
2023-01-17T18:37:01.288Z,10.75
2023-01-17T18:39:30.309Z,14.23
2023-01-17T18:41:58.025Z,22.55
2023-01-17T18:44:25.617Z,12.43
2023-01-17T18:46:58.349Z,17.42
2023-01-17T18:49:25.541Z,10.90
2023-01-17T18:51:52.924Z,7.22
2023-01-17T18:54:20.748Z,6.05
2023-01-17T18:56:48.461Z,7.40
2023-01-17T18:59:18.656Z,5.88
2023-01-17T19:01:46.448Z,15.20
2023-01-17T19:04:16.554Z,4.05
2023-01-17T19:06:47.015Z,3.67
2023-01-17T19:09:16.171Z,6.13
2023-01-17T19:11:45.192Z,4.10
2023-01-17T19:14:13.107Z,16.67
2023-01-17T19:16:42.196Z,6.15
2023-01-17T19:19:12.557Z,14.20
2023-01-17T19:21:39.960Z,12.63
2023-01-17T19:24:07.393Z,5.28
2023-01-17T19:26:37.911Z,6.38
2023-01-17T19:29:05.514Z,6.18
2023-01-17T19:31:36.888Z,6.57
2023-01-17T19:34:04.036Z,5.85
2023-01-17T19:36:36.673Z,13.57
2023-01-17T19:39:06.860Z,5.20
2023-01-17T19:41:36.343Z,7.10
2023-01-17T19:44:06.836Z,2.38
2023-01-17T19:46:35.988Z,4.88
2023-01-17T19:49:04.943Z,1.70
2023-01-17T19:51:31.963Z,5.28
2023-01-17T19:54:01.615Z,18.73
2023-01-17T19:56:29.479Z,5.82
2023-01-17T19:59:01.681Z,18.27
2023-01-17T20:01:32.344Z,9.45
2023-01-17T20:04:00.624Z,11.60
2023-01-17T20:06:30.339Z,14.50
2023-01-17T20:08:58.158Z,10.65
2023-01-17T20:11:26.956Z,6.43
2023-01-17T20:13:55.892Z,15.57
2023-01-17T20:16:24.765Z,12.95
2023-01-17T20:18:52.599Z,20.05
2023-01-17T20:21:22.492Z,13.88
2023-01-17T20:23:51.084Z,10.73
2023-01-17T20:26:21.865Z,12.00
2023-01-17T20:28:51.803Z,16.52
2023-01-17T20:31:24.644Z,14.40
2023-01-17T20:33:54.607Z,15.20
2023-01-17T20:36:23.889Z,11.65
2023-01-17T20:38:51.456Z,18.92
2023-01-17T20:41:19.911Z,26.27
2023-01-17T20:43:52.742Z,8.02
2023-01-17T20:46:21.211Z,15.60
2023-01-17T20:48:50.099Z,15.00
2023-01-17T20:51:17.862Z,11.18
2023-01-17T20:53:45.942Z,4.78
2023-01-17T20:56:17.576Z,8.02
2023-01-17T21:01:14.023Z,8.57
2023-01-17T21:03:41.123Z,7.07
2023-01-17T21:06:10.767Z,2.85
2023-01-17T21:08:42.443Z,13.85
2023-01-17T21:11:11.490Z,6.72
2023-01-17T21:13:39.658Z,4.07
2023-01-17T21:16:08.604Z,8.63
2023-01-17T21:18:37.006Z,8.85
2023-01-17T21:21:06.156Z,6.00
2023-01-17T21:23:35.098Z,3.80
2023-01-17T21:26:02.460Z,2.08
2023-01-17T21:28:33.215Z,1.20
2023-01-17T21:31:00.582Z,2.58
2023-01-17T21:33:29.759Z,3.75
2023-01-17T21:36:08.399Z,1.75
2023-01-17T21:38:36.084Z,0.28
2023-01-17T21:41:03.534Z,0.68
2023-01-17T21:43:31.206Z,4.80
2023-01-17T21:46:03.217Z,2.20
2023-01-17T21:48:30.585Z,6.53
2023-01-17T21:51:04.518Z,13.80
2023-01-17T21:53:33.407Z,1.05
2023-01-17T21:56:20.504Z,4.53
2023-01-17T21:58:54.504Z,4.72
2023-01-17T22:01:26.836Z,2.83
2023-01-17T22:03:59.436Z,3.35
2023-01-17T22:06:32.154Z,6.05
2023-01-17T22:08:59.911Z,3.67
2023-01-17T22:11:27.908Z,5.53
2023-01-17T22:13:56.336Z,2.15
2023-01-17T22:16:25.867Z,7.10
2023-01-17T22:18:53.382Z,5.68
2023-01-17T22:21:23.416Z,3.47
2023-01-17T22:23:52.624Z,3.85
2023-01-17T22:26:22.098Z,3.72
2023-01-17T22:28:50.225Z,1.80
2023-01-17T22:31:22.959Z,4.93
2023-01-17T22:33:58.832Z,1.45
2023-01-17T22:36:26.808Z,1.85
2023-01-17T22:38:53.884Z,1.98
2023-01-17T22:41:23.607Z,0.38
2023-01-17T22:43:57.061Z,0.63
2023-01-17T22:46:28.482Z,1.65
2023-01-17T22:48:56.567Z,1.33
2023-01-17T22:51:26.715Z,1.98
2023-01-17T22:53:56.323Z,2.33
2023-01-17T22:56:26.738Z,1.45
2023-01-17T22:58:53.925Z,0.83
2023-01-17T23:01:26.877Z,0.28
2023-01-17T23:03:57.225Z,0.90
2023-01-17T23:06:28.253Z,0.30
2023-01-17T23:08:57.619Z,0.93
2023-01-17T23:11:44.155Z,0.60
2023-01-17T23:14:53.933Z,0.38
2023-01-17T23:17:41.866Z,1.10
2023-01-17T23:20:11.598Z,0.55
2023-01-17T23:22:38.540Z,0.13
2023-01-17T23:25:13.616Z,0.20
2023-01-17T23:28:03.791Z,0.55
2023-01-17T23:30:38.324Z,0.13
2023-01-17T23:33:08.373Z,0.35
2023-01-17T23:35:41.641Z,1.95
2023-01-17T23:38:27.043Z,0.75
2023-01-17T23:41:17.934Z,0.10
2023-01-17T23:43:45.184Z,0.10
2023-01-17T23:46:13.121Z,1.05
2023-01-17T23:48:39.982Z,0.73
2023-01-17T23:51:09.644Z,0.22
2023-01-17T23:53:38.217Z,0.70
2023-01-17T23:56:17.867Z,0.28
2023-01-17T23:58:45.109Z,0.90
